Time;durP1;ratioP1;P1;durP2;ratioP2;P2;SDS_P1;SDS_P2;PMS_P1;PMS_P2;Temp;Humidity;BMP_temperature;BMP_pressure;BME280_temperature;BME280_humidity;BME280_pressure;Samples;Min_cycle;Max_cycle;Signal;HPM_P1;HPM_P2
2023/09/18 00:00:22;;;;;;;5.18;2.05;;;;;;;26.93;57.21;98858.41;4994421;28;20033;-76
2023/09/18 00:02:48;;;;;;;4.78;1.80;;;;;;;26.91;57.42;98871.03;4993962;28;20034;-75
2023/09/18 00:05:16;;;;;;;3.88;1.80;;;;;;;26.92;57.42;98864.75;5003052;28;20045;-74
2023/09/18 00:07:43;;;;;;;4.50;1.90;;;;;;;26.92;57.29;98867.44;5010242;28;20504;-75
2023/09/18 00:10:10;;;;;;;4.20;1.90;;;;;;;26.92;57.09;98864.75;4994015;28;20012;-74
2023/09/18 00:12:35;;;;;;;5.25;1.95;;;;;;;26.88;57.41;98871.34;4993884;28;20101;-75
2023/09/18 00:15:01;;;;;;;5.03;1.88;;;;;;;26.87;57.58;98878.53;4993731;28;20501;-75
2023/09/18 00:17:26;;;;;;;4.05;1.88;;;;;;;26.86;57.25;98873.31;4985571;28;20027;-75
2023/09/18 00:19:53;;;;;;;3.55;1.70;;;;;;;26.85;57.28;98882.34;4974789;28;20030;-75
2023/09/18 00:22:18;;;;;;;3.60;1.80;;;;;;;26.84;57.02;98876.16;4974449;28;20114;-75
2023/09/18 00:24:43;;;;;;;3.60;1.70;;;;;;;26.79;57.55;98884.59;4974521;28;20110;-76
2023/09/18 00:27:11;;;;;;;5.32;1.70;;;;;;;26.79;57.38;98873.06;4983118;28;20031;-75
2023/09/18 00:29:36;;;;;;;4.45;1.67;;;;;;;26.78;57.08;98872.22;5008889;28;20050;-76
2023/09/18 00:32:02;;;;;;;4.13;1.70;;;;;;;26.73;57.47;98882.50;4993521;28;20519;-76
2023/09/18 00:34:29;;;;;;;3.72;1.27;;;;;;;26.76;57.46;98895.63;4993637;28;20042;-76
2023/09/18 00:36:54;;;;;;;5.43;1.60;;;;;;;26.75;57.32;98895.75;4993726;28;20103;-76
2023/09/18 00:39:20;;;;;;;5.13;1.75;;;;;;;26.75;57.40;98890.41;4993916;28;20471;-75
2023/09/18 00:41:49;;;;;;;5.63;1.77;;;;;;;26.72;57.52;98883.50;4986646;28;20097;-75
2023/09/18 00:44:14;;;;;;;3.72;1.60;;;;;;;26.73;57.16;98885.19;4989318;28;20038;-75
2023/09/18 00:46:40;;;;;;;3.10;1.40;;;;;;;26.71;57.48;98897.03;4993405;28;20387;-76
2023/09/18 00:49:06;;;;;;;3.75;1.63;;;;;;;26.71;57.49;98892.53;4993465;28;20506;-76
2023/09/18 00:51:32;;;;;;;3.38;1.55;;;;;;;26.72;57.21;98894.22;4993090;28;20065;-75
2023/09/18 00:53:59;;;;;;;4.15;1.77;;;;;;;26.69;57.51;98899.88;4974005;28;20030;-74
2023/09/18 00:56:24;;;;;;;3.28;1.50;;;;;;;26.68;57.49;98887.47;4975087;28;20026;-76
2023/09/18 00:58:51;;;;;;;4.82;1.58;;;;;;;26.68;57.51;98893.66;4980252;28;20448;-76
2023/09/18 01:01:22;;;;;;;3.63;1.35;;;;;;;26.70;57.32;98890.00;4993091;28;20030;-75
2023/09/18 01:03:50;;;;;;;4.13;1.50;;;;;;;26.72;57.20;98898.75;4991964;28;20050;-75
2023/09/18 01:06:16;;;;;;;3.22;1.40;;;;;;;26.69;57.12;98894.53;5025428;28;20029;-75
2023/09/18 01:08:41;;;;;;;4.93;1.98;;;;;;;26.67;57.14;98891.97;5011106;28;20025;-76
2023/09/18 01:11:17;;;;;;;3.95;1.63;;;;;;;26.69;57.05;98891.84;4993234;28;20089;-76
2023/09/18 01:13:51;;;;;;;;;;;;;;;26.70;57.23;98892.66;4992187;28;20084;-76
2023/09/18 01:16:27;;;;;;;5.25;1.70;;;;;;;26.68;57.13;98876.75;4992800;28;19914;-75
2023/09/18 01:18:52;;;;;;;3.92;1.65;;;;;;;26.65;57.09;98887.75;4992996;28;20033;-75
2023/09/18 01:21:21;;;;;;;4.57;1.40;;;;;;;26.65;57.09;98890.44;4993121;28;20406;-76
2023/09/18 01:23:49;;;;;;;3.47;1.40;;;;;;;26.64;57.11;98891.44;4992881;28;20053;-76
2023/09/18 01:26:14;;;;;;;5.40;1.60;;;;;;;26.66;57.15;98889.44;4992741;28;20026;-75
2023/09/18 01:28:40;;;;;;;3.33;1.10;;;;;;;26.68;57.14;98898.16;4992903;28;20033;-75
2023/09/18 01:31:05;;;;;;;3.78;1.63;;;;;;;26.67;57.09;98883.09;4992507;28;20022;-76
2023/09/18 01:33:32;;;;;;;3.47;1.35;;;;;;;26.61;57.49;98881.00;4992839;28;20057;-75
2023/09/18 01:35:58;;;;;;;2.55;1.48;;;;;;;26.62;57.28;98885.38;4992957;28;20053;-76
2023/09/18 01:38:25;;;;;;;3.38;1.33;;;;;;;26.62;57.27;98888.91;4991465;28;20029;-76
2023/09/18 01:40:53;;;;;;;3.90;1.60;;;;;;;26.63;57.21;98879.06;4992701;28;20034;-75
2023/09/18 01:43:19;;;;;;;3.88;1.33;;;;;;;26.65;57.41;98866.34;4984021;28;20373;-75
2023/09/18 01:45:45;;;;;;;4.25;1.42;;;;;;;26.64;57.07;98880.72;4991603;28;20030;-76
2023/09/18 01:48:10;;;;;;;3.22;1.65;;;;;;;26.65;57.34;98877.91;4992691;28;20033;-76
2023/09/18 01:50:37;;;;;;;3.15;1.48;;;;;;;26.60;57.32;98873.97;4992451;28;20394;-76
2023/09/18 01:53:03;;;;;;;2.60;1.27;;;;;;;26.60;57.22;98879.31;4992663;28;20553;-75
2023/09/18 01:55:29;;;;;;;3.22;1.50;;;;;;;26.58;57.21;98871.44;4992496;28;20505;-76
2023/09/18 01:57:55;;;;;;;2.83;1.23;;;;;;;26.61;57.17;98868.47;4992353;28;20074;-76
2023/09/18 02:00:21;;;;;;;4.10;1.58;;;;;;;26.60;57.13;98874.81;4992493;28;20054;-76
2023/09/18 02:02:47;;;;;;;2.22;1.13;;;;;;;26.59;57.23;98880.31;4992136;28;20104;-76
2023/09/18 02:05:12;;;;;;;3.70;1.27;;;;;;;26.59;57.37;98883.00;5000910;28;20052;-76
2023/09/18 02:07:37;;;;;;;4.13;1.40;;;;;;;26.58;57.58;98881.31;5010280;28;20021;-76
2023/09/18 02:10:03;;;;;;;2.22;1.10;;;;;;;26.58;57.33;98870.59;4992212;28;20162;-75
2023/09/18 02:12:29;;;;;;;2.97;1.30;;;;;;;26.60;57.18;98868.63;4992299;28;20026;-76
2023/09/18 02:14:57;;;;;;;3.25;1.30;;;;;;;26.59;57.25;98856.25;4984212;28;20023;-75
2023/09/18 02:17:22;;;;;;;4.55;1.50;;;;;;;26.57;57.37;98851.03;4973196;28;20033;-76
2023/09/18 02:19:48;;;;;;;5.03;1.60;;;;;;;26.54;57.21;98854.84;4973072;28;20098;-76
2023/09/18 02:22:13;;;;;;;3.17;1.30;;;;;;;26.56;57.54;98856.50;4971397;28;20046;-76
2023/09/18 02:24:39;;;;;;;4.40;1.50;;;;;;;26.60;57.11;98852.56;4986894;28;20033;-75
2023/09/18 02:27:05;;;;;;;3.55;1.50;;;;;;;26.59;57.54;98853.56;4992153;28;20015;-76
2023/09/18 02:29:33;;;;;;;5.53;1.55;;;;;;;26.60;57.30;98849.91;4992323;28;20033;-75
2023/09/18 02:31:58;;;;;;;3.25;1.45;;;;;;;26.54;57.13;98849.47;4992456;28;20023;-75
2023/09/18 02:34:23;;;;;;;3.67;1.58;;;;;;;26.53;57.23;98847.81;4979048;28;20023;-75
2023/09/18 02:36:49;;;;;;;3.45;1.50;;;;;;;26.57;57.20;98852.88;4974186;28;20023;-76
2023/09/18 02:39:14;;;;;;;3.60;1.20;;;;;;;26.52;57.10;98843.44;4976672;28;20387;-75
2023/09/18 02:41:40;;;;;;;2.42;1.15;;;;;;;26.53;57.16;98837.09;4976380;28;20036;-76
2023/09/18 02:44:05;;;;;;;3.85;1.20;;;;;;;26.50;57.26;98841.91;4985596;28;20093;-75
2023/09/18 02:46:30;;;;;;;2.42;1.40;;;;;;;26.52;57.03;98837.22;4995952;28;20022;-76
2023/09/18 02:48:56;;;;;;;4.25;1.13;;;;;;;26.52;57.43;98839.91;4995813;28;20023;-75
2023/09/18 02:51:21;;;;;;;3.45;1.40;;;;;;;26.47;57.13;98837.69;4995766;28;20023;-75
2023/09/18 02:53:47;;;;;;;3.67;1.38;;;;;;;26.51;57.01;98843.56;4995502;28;20459;-75
2023/09/18 02:56:13;;;;;;;3.80;1.48;;;;;;;26.51;57.49;98844.44;4995273;28;20113;-76
2023/09/18 02:58:38;;;;;;;3.78;1.40;;;;;;;26.52;57.33;98851.47;4995594;28;20030;-75
2023/09/18 03:01:06;;;;;;;4.45;1.77;;;;;;;26.50;57.04;98848.09;4995433;28;20494;-76
2023/09/18 03:03:32;;;;;;;4.28;1.35;;;;;;;26.51;57.06;98865.84;4992561;28;20031;-76
2023/09/18 03:06:02;;;;;;;4.63;1.55;;;;;;;26.49;57.17;98867.78;4990711;28;20037;-76
2023/09/18 03:08:28;;;;;;;2.83;1.27;;;;;;;26.49;57.13;98859.75;4995357;28;20046;-75
2023/09/18 03:10:54;;;;;;;3.60;1.02;;;;;;;26.45;57.35;98853.03;4994848;28;20116;-75
2023/09/18 03:13:19;;;;;;;3.53;1.33;;;;;;;26.47;57.34;98853.72;4995389;28;20465;-75
2023/09/18 03:15:48;;;;;;;4.38;1.45;;;;;;;26.50;57.29;98848.09;4986138;28;20545;-75
2023/09/18 03:18:14;;;;;;;2.85;1.30;;;;;;;26.51;57.04;98838.22;4975775;28;20031;-75
2023/09/18 03:20:40;;;;;;;3.63;1.63;;;;;;;26.47;57.11;98844.84;4975820;28;20037;-75
2023/09/18 03:23:05;;;;;;;3.65;1.23;;;;;;;26.49;56.98;98849.06;4975433;28;20066;-76
2023/09/18 03:25:30;;;;;;;2.20;1.20;;;;;;;26.46;57.10;98846.69;4975233;28;20034;-76
2023/09/18 03:27:57;;;;;;;4.10;1.42;;;;;;;26.48;57.17;98855.41;4993101;28;20058;-76
2023/09/18 03:30:23;;;;;;;3.72;1.38;;;;;;;26.47;57.00;98853.72;4994962;28;20045;-74
2023/09/18 03:32:50;;;;;;;2.83;1.10;;;;;;;26.45;56.88;98850.38;4988370;28;20033;-76
2023/09/18 03:35:19;;;;;;;2.92;1.35;;;;;;;26.43;57.35;98863.03;4983457;28;20023;-75
2023/09/18 03:37:45;;;;;;;3.90;1.40;;;;;;;26.45;57.21;98861.06;4987718;28;20107;-75
2023/09/18 03:40:11;;;;;;;3.00;1.10;;;;;;;26.43;56.99;98860.34;4975115;28;20027;-75
2023/09/18 03:42:37;;;;;;;3.95;1.25;;;;;;;26.44;56.97;98845.97;4975365;28;20113;-75
2023/09/18 03:45:07;;;;;;;2.10;1.20;;;;;;;26.42;57.32;98839.94;4978354;28;20106;-75
2023/09/18 03:47:37;;;;;;;3.10;1.10;;;;;;;26.42;56.93;98839.94;4994566;28;20056;-75
2023/09/18 03:50:03;;;;;;;5.13;2.05;;;;;;;26.45;56.95;98839.66;4991078;28;20030;-75
2023/09/18 03:52:29;;;;;;;3.17;1.20;;;;;;;26.46;57.12;98840.50;4994764;28;20026;-75
2023/09/18 03:54:54;;;;;;;2.83;1.10;;;;;;;26.39;56.96;98850.94;4994247;28;20026;-76
2023/09/18 03:57:20;;;;;;;3.17;1.17;;;;;;;26.42;57.04;98847.97;4994412;28;20165;-76
2023/09/18 03:59:45;;;;;;;4.78;1.83;;;;;;;26.44;57.22;98831.78;4979665;28;20030;-75
2023/09/18 04:02:11;;;;;;;2.13;1.10;;;;;;;26.40;56.93;98828.56;4974630;28;20030;-75
2023/09/18 04:04:36;;;;;;;2.53;1.08;;;;;;;26.42;57.03;98831.91;4982116;28;20108;-76
2023/09/18 04:07:06;;;;;;;2.78;1.20;;;;;;;26.41;57.00;98827.56;5013699;28;20023;-76
2023/09/18 04:09:31;;;;;;;3.47;1.30;;;;;;;26.38;56.82;98833.19;5004771;28;20026;-76
2023/09/18 04:11:57;;;;;;;3.92;1.33;;;;;;;26.38;57.09;98831.38;4994396;28;20114;-76
2023/09/18 04:14:22;;;;;;;4.13;1.30;;;;;;;26.37;57.25;98848.41;4994340;28;20030;-74
2023/09/18 04:16:48;;;;;;;2.53;1.40;;;;;;;26.38;57.06;98849.22;4994254;28;20088;-75
2023/09/18 04:19:13;;;;;;;4.93;1.33;;;;;;;26.37;57.34;98855.56;4994147;28;20022;-74
2023/09/18 04:21:39;;;;;;;4.60;1.45;;;;;;;26.38;57.18;98859.94;4992584;28;20034;-75
2023/09/18 04:24:04;;;;;;;4.63;1.48;;;;;;;26.37;56.87;98856.44;4993347;28;20030;-75
2023/09/18 04:26:30;;;;;;;5.30;1.35;;;;;;;26.37;56.95;98848.41;4993916;28;20029;-76
2023/09/18 04:29:02;;;;;;;2.13;1.20;;;;;;;26.35;56.96;98849.53;4990280;28;20019;-74
2023/09/18 04:31:27;;;;;;;3.08;1.30;;;;;;;26.33;56.91;98844.31;4984899;28;20081;-75
2023/09/18 04:33:54;;;;;;;2.83;1.25;;;;;;;26.36;57.11;98864.59;4993765;28;20014;-75
2023/09/18 04:36:19;;;;;;;3.78;1.27;;;;;;;26.31;57.00;98864.16;4993951;28;20549;-75
2023/09/18 04:38:45;;;;;;;5.72;1.73;;;;;;;26.27;57.23;98855.59;4991448;28;20023;-76
2023/09/18 04:41:11;;;;;;;4.65;1.45;;;;;;;26.31;57.36;98848.13;4972887;28;20399;-75
2023/09/18 04:43:40;;;;;;;4.55;1.90;;;;;;;26.35;56.84;98849.53;4986111;28;20038;-76
2023/09/18 04:46:06;;;;;;;3.65;1.55;;;;;;;26.34;57.12;98847.84;4993541;28;20080;-75
2023/09/18 04:48:32;;;;;;;4.47;1.40;;;;;;;26.30;57.00;98849.97;4992113;28;20101;-75
2023/09/18 04:50:59;;;;;;;5.60;1.63;;;;;;;26.31;57.07;98848.13;4974038;28;20046;-75
2023/09/18 04:53:25;;;;;;;3.78;1.60;;;;;;;26.30;57.21;98841.09;4973395;28;20059;-74
2023/09/18 04:55:50;;;;;;;4.78;1.42;;;;;;;26.30;57.17;98841.09;4987693;28;20132;-75
2023/09/18 04:58:17;;;;;;;3.78;1.30;;;;;;;26.24;56.92;98843.34;4993318;28;20033;-75
2023/09/18 05:00:42;;;;;;;4.25;1.48;;;;;;;26.24;57.30;98837.19;4992330;28;20519;-75
2023/09/18 05:03:09;;;;;;;3.72;1.80;;;;;;;26.22;57.37;98839.97;4993211;28;20104;-75
2023/09/18 05:05:35;;;;;;;4.25;1.50;;;;;;;26.24;57.16;98837.19;5004396;28;20085;-75
2023/09/18 05:08:03;;;;;;;4.43;1.67;;;;;;;26.23;56.97;98833.66;5012738;28;20034;-75
2023/09/18 05:10:29;;;;;;;4.80;1.60;;;;;;;26.24;57.30;98848.69;4997260;28;20054;-76
2023/09/18 05:12:58;;;;;;;4.65;1.73;;;;;;;26.21;57.55;98857.00;4992878;28;20018;-76
2023/09/18 05:15:26;;;;;;;3.92;2.20;;;;;;;26.20;57.92;98852.59;4993054;28;20023;-76
2023/09/18 05:17:56;;;;;;;6.55;1.70;;;;;;;26.18;57.79;98841.22;4993117;28;20032;-76
2023/09/18 05:20:24;;;;;;;4.68;1.80;;;;;;;26.23;57.59;98846.16;4993027;28;20041;-75
2023/09/18 05:22:52;;;;;;;3.45;1.73;;;;;;;26.23;57.57;98844.34;4992474;28;20034;-75
2023/09/18 05:25:18;;;;;;;4.57;1.52;;;;;;;26.19;57.90;98840.22;4993169;28;20037;-76
2023/09/18 05:27:44;;;;;;;4.43;1.80;;;;;;;26.20;57.64;98825.88;4992559;28;20022;-77
2023/09/18 05:30:13;;;;;;;4.63;1.88;;;;;;;26.21;57.84;98835.59;4992656;28;20136;-77
2023/09/18 05:32:38;;;;;;;3.80;1.75;;;;;;;26.20;57.68;98831.22;4972166;28;20035;-76
2023/09/18 05:35:06;;;;;;;4.63;1.70;;;;;;;26.22;57.31;98839.97;4979408;28;20065;-77
2023/09/18 05:37:32;;;;;;;5.13;1.83;;;;;;;26.24;57.44;98838.00;4990189;28;20022;-76
2023/09/18 05:39:58;;;;;;;4.00;1.73;;;;;;;26.24;57.67;98829.16;4980176;28;20490;-76
2023/09/18 05:42:23;;;;;;;5.32;1.90;;;;;;;26.23;57.48;98824.78;4973607;28;20034;-76
2023/09/18 05:44:49;;;;;;;7.15;2.13;;;;;;;26.20;57.43;98836.56;4973517;28;20106;-76
2023/09/18 05:47:14;;;;;;;4.20;1.70;;;;;;;26.18;58.01;98838.53;4973300;28;20085;-76
2023/09/18 05:49:39;;;;;;;6.00;2.38;;;;;;;26.14;57.85;98842.47;4972059;28;20403;-76
2023/09/18 05:52:05;;;;;;;6.15;2.42;;;;;;;26.11;58.00;98843.63;4972907;28;20114;-76
2023/09/18 05:54:30;;;;;;;7.35;2.60;;;;;;;26.10;58.26;98841.09;4986924;28;20034;-77
2023/09/18 05:56:56;;;;;;;9.50;2.70;;;;;;;26.15;57.77;98844.19;4996114;28;20030;-76
2023/09/18 05:59:21;;;;;;;7.85;2.40;;;;;;;26.15;58.15;98836.19;4992417;28;20489;-76
2023/09/18 06:01:48;;;;;;;8.00;2.30;;;;;;;26.19;57.63;98845.56;4992456;28;20618;-76
2023/09/18 06:04:13;;;;;;;7.20;2.40;;;;;;;26.17;57.80;98852.91;4992311;28;20050;-77
2023/09/18 06:06:39;;;;;;;8.32;2.60;;;;;;;26.20;57.52;98849.09;5010757;28;20359;-76
2023/09/18 06:09:04;;;;;;;7.80;2.65;;;;;;;26.20;57.94;98854.47;5011665;28;20038;-76
2023/09/18 06:11:30;;;;;;;8.40;2.70;;;;;;;26.18;57.70;98851.06;5012614;28;20053;-76
2023/09/18 06:13:55;;;;;;;7.43;3.00;;;;;;;26.14;58.12;98854.03;5010814;28;20019;-76
2023/09/18 06:16:21;;;;;;;9.52;3.13;;;;;;;26.13;57.82;98851.50;4996593;28;20085;-76
2023/09/18 06:18:46;;;;;;;8.95;2.60;;;;;;;26.15;57.90;98849.53;4995916;28;20376;-76
2023/09/18 06:21:11;;;;;;;6.88;2.95;;;;;;;26.15;57.84;98852.22;4996434;28;20023;-76
2023/09/18 06:23:37;;;;;;;8.57;2.88;;;;;;;26.16;57.51;98853.91;4996121;28;20035;-75
2023/09/18 06:26:04;;;;;;;7.30;3.25;;;;;;;26.16;57.68;98856.56;4995971;28;20038;-77
2023/09/18 06:28:30;;;;;;;7.07;3.35;;;;;;;26.14;57.81;98863.88;4996105;28;20031;-76
2023/09/18 06:30:55;;;;;;;9.38;3.50;;;;;;;26.13;57.60;98872.88;4996310;28;20045;-76
2023/09/18 06:33:21;;;;;;;11.15;3.33;;;;;;;26.09;57.82;98876.81;4995505;28;20029;-76
2023/09/18 06:35:48;;;;;;;8.50;3.50;;;;;;;26.13;57.68;98867.53;4994789;28;20038;-76
2023/09/18 06:38:15;;;;;;;6.63;3.20;;;;;;;26.12;57.84;98871.19;4996019;28;20034;-72
2023/09/18 06:40:41;;;;;;;5.78;3.20;;;;;;;26.14;57.68;98869.22;4995814;28;20448;-73
2023/09/18 06:43:06;;;;;;;6.88;3.35;;;;;;;26.13;57.66;98867.53;4995968;28;20153;-73
2023/09/18 06:45:33;;;;;;;8.15;3.50;;;;;;;26.15;57.66;98873.59;4996129;28;20506;-72
2023/09/18 06:48:00;;;;;;;8.50;3.88;;;;;;;26.17;57.52;98871.63;4995466;28;20033;-72
2023/09/18 06:50:25;;;;;;;7.43;3.22;;;;;;;26.15;57.48;98868.25;4995777;28;20403;-72
2023/09/18 06:52:51;;;;;;;6.90;3.40;;;;;;;26.15;57.45;98876.28;4994439;28;20026;-73
2023/09/18 06:55:16;;;;;;;6.40;3.33;;;;;;;26.14;57.52;98880.78;4995945;28;20483;-72
2023/09/18 06:57:42;;;;;;;9.60;4.00;;;;;;;26.14;57.71;98880.78;4995878;28;20034;-73
2023/09/18 07:00:08;;;;;;;9.02;3.85;;;;;;;26.09;57.34;98876.81;4995515;28;20035;-73
2023/09/18 07:02:33;;;;;;;6.90;3.67;;;;;;;26.10;57.53;98889.22;4995426;28;20037;-73
2023/09/18 07:04:59;;;;;;;6.38;3.53;;;;;;;26.11;57.31;98885.56;5002025;28;20457;-73
2023/09/18 07:07:25;;;;;;;6.70;3.50;;;;;;;26.07;57.66;98894.84;5015159;28;20100;-72
2023/09/18 07:09:51;;;;;;;6.15;3.53;;;;;;;26.06;57.46;98888.66;5015185;28;20044;-73
2023/09/18 07:12:19;;;;;;;7.93;3.63;;;;;;;26.07;57.45;98905.53;5010670;28;20049;-72
2023/09/18 07:14:45;;;;;;;9.07;3.97;;;;;;;26.06;57.87;98914.53;4995539;28;20018;-73
2023/09/18 07:17:10;;;;;;;10.25;3.80;;;;;;;26.09;57.50;98919.59;4995139;28;20033;-73
2023/09/18 07:19:36;;;;;;;6.65;3.80;;;;;;;26.10;57.56;98921.31;4995464;28;20387;-72
2023/09/18 07:22:02;;;;;;;6.05;3.30;;;;;;;26.10;57.28;98927.47;4995028;28;20489;-73
2023/09/18 07:24:27;;;;;;;9.65;4.65;;;;;;;26.08;57.58;98933.94;4995264;28;20022;-72
2023/09/18 07:26:54;;;;;;;6.72;3.78;;;;;;;26.10;57.38;98942.69;4995335;28;20036;-73
2023/09/18 07:29:20;;;;;;;6.97;3.80;;;;;;;26.11;57.65;98955.06;4995321;28;20026;-73
2023/09/18 07:31:46;;;;;;;9.85;4.35;;;;;;;26.10;57.21;98956.88;4993251;28;20034;-73
2023/09/18 07:34:13;;;;;;;6.43;3.90;;;;;;;26.16;57.27;98952.84;4995396;28;20097;-72
2023/09/18 07:36:39;;;;;;;8.43;4.22;;;;;;;26.13;57.55;98953.09;4994884;28;20034;-72
2023/09/18 07:39:05;;;;;;;7.18;4.07;;;;;;;26.13;57.24;98953.94;4995037;28;20372;-73
2023/09/18 07:41:31;;;;;;;6.72;3.90;;;;;;;26.16;57.33;98960.84;4994693;28;20085;-73
2023/09/18 07:44:00;;;;;;;9.57;4.00;;;;;;;26.17;57.07;98959.88;4995150;28;20081;-73
2023/09/18 07:46:26;;;;;;;6.22;4.25;;;;;;;26.18;57.37;98966.91;4994797;28;20042;-73
2023/09/18 07:48:51;;;;;;;6.70;3.90;;;;;;;26.19;57.29;98959.72;4993642;28;20029;-72
2023/09/18 07:51:16;;;;;;;8.63;4.38;;;;;;;26.17;57.45;98965.22;4994970;28;20023;-72
2023/09/18 07:53:42;;;;;;;10.77;4.57;;;;;;;26.20;57.01;98970.25;4994652;28;20034;-73
2023/09/18 07:56:08;;;;;;;6.45;3.83;;;;;;;26.18;57.37;98980.25;4994721;28;20138;-72
2023/09/18 07:58:38;;;;;;;6.60;3.80;;;;;;;26.16;57.35;98990.25;4994395;28;20032;-72
2023/09/18 08:01:05;;;;;;;8.15;4.28;;;;;;;26.14;57.23;98986.88;4994310;28;20030;-72
2023/09/18 08:03:31;;;;;;;7.38;3.95;;;;;;;26.16;57.34;98979.56;4994566;28;20038;-72
2023/09/18 08:05:57;;;;;;;6.78;4.05;;;;;;;26.16;57.13;98974.22;5002335;28;20026;-72
2023/09/18 08:08:23;;;;;;;7.18;4.20;;;;;;;26.17;57.08;98980.41;4994600;28;20057;-72
2023/09/18 08:10:50;;;;;;;8.50;4.60;;;;;;;26.20;57.13;98980.13;4994775;28;20038;-72
2023/09/18 08:13:16;;;;;;;8.25;4.22;;;;;;;26.17;57.08;98991.94;4994503;28;20057;-73
2023/09/18 08:15:42;;;;;;;7.82;4.72;;;;;;;26.12;57.41;98994.19;4993973;28;20040;-72
2023/09/18 08:18:07;;;;;;;9.05;4.57;;;;;;;26.14;57.43;98982.38;4994540;28;20026;-72
2023/09/18 08:20:33;;;;;;;10.70;4.75;;;;;;;26.19;57.17;98979.28;4993779;28;20387;-73
2023/09/18 08:23:01;;;;;;;8.30;4.75;;;;;;;26.11;57.08;98981.81;4994147;28;20053;-73
2023/09/18 08:25:26;;;;;;;7.15;4.25;;;;;;;26.12;57.49;98978.16;4993904;28;20026;-72
2023/09/18 08:27:52;;;;;;;6.43;3.97;;;;;;;26.12;57.27;98988.84;4994242;28;20073;-73
2023/09/18 08:30:20;;;;;;;8.98;4.43;;;;;;;26.17;57.09;98991.94;4993874;28;20038;-73
2023/09/18 08:32:47;;;;;;;7.22;4.72;;;;;;;26.12;57.53;98989.69;4993920;28;20054;-73
2023/09/18 08:35:12;;;;;;;7.60;4.57;;;;;;;26.16;57.42;98992.94;4993427;28;20114;-72
2023/09/18 08:37:39;;;;;;;9.90;4.45;;;;;;;26.15;57.54;98993.94;4994009;28;20102;-73
2023/09/18 08:40:09;;;;;;;8.00;4.60;;;;;;;26.13;57.44;99002.09;4993717;28;20080;-72
2023/09/18 08:42:36;;;;;;;9.55;4.88;;;;;;;26.15;57.14;98996.59;4993644;28;20035;-73
2023/09/18 08:45:03;;;;;;;7.93;4.28;;;;;;;26.11;57.73;99004.03;4993436;28;20031;-73
2023/09/18 08:47:30;;;;;;;6.85;4.43;;;;;;;26.11;57.78;99000.53;4993657;28;20022;-73
2023/09/18 08:49:58;;;;;;;6.95;4.60;;;;;;;26.15;57.40;99001.94;4993295;28;20029;-73
2023/09/18 08:52:25;;;;;;;7.22;4.50;;;;;;;26.15;57.27;99015.31;4993317;28;20525;-73
2023/09/18 08:54:53;;;;;;;6.22;4.53;;;;;;;26.20;57.11;99021.06;4993810;28;20034;-73
2023/09/18 08:57:20;;;;;;;8.32;4.80;;;;;;;26.19;57.14;99027.41;4993565;28;20033;-72
2023/09/18 08:59:47;;;;;;;7.55;4.53;;;;;;;26.20;57.49;99029.09;4981180;28;20023;-73
2023/09/18 09:02:13;;;;;;;10.15;5.30;;;;;;;26.22;57.58;99037.84;4978863;28;20034;-73
2023/09/18 09:04:39;;;;;;;9.13;4.85;;;;;;;26.23;57.16;99039.56;4997058;28;20038;-72
2023/09/18 09:07:04;;;;;;;8.45;4.40;;;;;;;26.26;57.43;99033.91;5011679;28;20084;-73
2023/09/18 09:09:30;;;;;;;6.88;4.65;;;;;;;26.28;57.57;99031.09;5011598;28;20045;-72
2023/09/18 09:11:56;;;;;;;7.32;4.43;;;;;;;26.29;57.12;99031.97;5013098;28;20380;-73
2023/09/18 09:14:27;;;;;;;6.60;4.45;;;;;;;26.30;57.09;99039.00;5005683;28;20106;-72
2023/09/18 09:16:54;;;;;;;8.35;5.00;;;;;;;26.32;56.93;99039.69;4989168;28;20019;-72
2023/09/18 09:19:32;;;;;;;8.93;4.97;;;;;;;26.33;56.96;99038.75;4973984;28;20015;-73
2023/09/18 09:22:01;;;;;;;8.05;4.97;;;;;;;26.35;56.82;99040.25;4973645;28;20031;-73
2023/09/18 09:24:41;;;;;;;6.65;4.53;;;;;;;26.35;57.10;99031.41;4974581;28;20105;-73
2023/09/18 09:27:08;;;;;;;8.32;4.80;;;;;;;26.36;57.12;99039.31;4986901;28;20039;-73
2023/09/18 09:29:34;;;;;;;7.88;4.90;;;;;;;26.37;57.08;99045.47;4973452;28;20030;-73
2023/09/18 09:32:17;;;;;;;8.65;4.90;;;;;;;26.37;57.32;99050.81;4973690;28;20031;-73
2023/09/18 09:34:44;;;;;;;6.07;4.55;;;;;;;26.39;56.98;99049.69;4973585;28;20037;-73
2023/09/18 09:37:10;;;;;;;7.22;4.60;;;;;;;26.41;56.81;99057.59;4977988;28;20446;-73
2023/09/18 09:39:49;;;;;;;7.25;4.53;;;;;;;26.42;57.10;99058.44;4992826;28;20399;-73
2023/09/18 09:42:18;;;;;;;7.38;4.57;;;;;;;26.43;56.49;99060.97;4992528;28;20031;-73
2023/09/18 09:44:44;;;;;;;8.77;4.80;;;;;;;26.42;56.85;99059.28;4992879;28;20074;-73
2023/09/18 09:47:11;;;;;;;9.07;4.63;;;;;;;26.44;56.66;99064.50;4986975;28;20097;-72
2023/09/18 09:49:47;;;;;;;6.97;4.47;;;;;;;26.44;56.83;99053.78;4973324;28;20035;-73
2023/09/18 09:52:22;;;;;;;8.00;5.00;;;;;;;26.45;56.53;99053.66;4973430;28;20114;-73
2023/09/18 09:54:47;;;;;;;9.25;5.05;;;;;;;26.46;56.74;99055.34;4973431;28;20046;-73
2023/09/18 09:57:13;;;;;;;8.30;4.55;;;;;;;26.45;56.50;99061.69;4979125;28;20427;-72
2023/09/18 09:59:39;;;;;;;8.10;4.57;;;;;;;26.44;56.76;99062.66;4992823;28;20557;-73
2023/09/18 10:02:09;;;;;;;7.32;4.20;;;;;;;26.45;56.51;99069.72;4992713;28;20034;-73
2023/09/18 10:04:36;;;;;;;7.47;4.65;;;;;;;26.44;56.79;99073.34;4995867;28;20133;-73
2023/09/18 10:07:08;;;;;;;8.57;4.75;;;;;;;26.42;57.02;99069.97;5007852;28;20030;-72
2023/09/18 10:09:36;;;;;;;8.02;4.57;;;;;;;26.42;56.80;99074.50;4992517;28;20445;-73
2023/09/18 10:12:09;;;;;;;7.95;4.82;;;;;;;26.40;56.67;99088.00;4992351;28;20022;-73
2023/09/18 10:14:37;;;;;;;7.18;4.88;;;;;;;26.42;56.67;99088.72;4992662;28;20034;-73
2023/09/18 10:17:29;;;;;;;7.05;4.60;;;;;;;26.43;56.81;99087.72;4988253;28;20058;-73
2023/09/18 10:19:59;;;;;;;8.68;5.07;;;;;;;26.44;56.80;99094.75;4984777;28;20045;-73
2023/09/18 10:22:37;;;;;;;7.65;4.80;;;;;;;26.45;56.63;99103.63;4992378;28;20030;-73
2023/09/18 10:25:20;;;;;;;8.30;4.88;;;;;;;26.45;56.67;99091.13;4992606;28;20081;-72
2023/09/18 10:27:53;;;;;;;8.30;4.40;;;;;;;26.47;56.77;99093.63;4982373;28;20027;-73
2023/09/18 10:30:19;;;;;;;6.68;4.53;;;;;;;26.46;57.00;99092.81;4973036;28;20033;-73
2023/09/18 10:32:46;;;;;;;7.68;4.00;;;;;;;26.47;56.83;99091.81;4973148;28;20200;-72
2023/09/18 10:35:12;;;;;;;8.13;4.40;;;;;;;26.48;56.84;99095.34;4973082;28;20488;-73
2023/09/18 10:37:39;;;;;;;7.20;4.80;;;;;;;26.48;56.77;99090.81;4981592;28;20056;-73
2023/09/18 10:40:08;;;;;;;6.13;4.38;;;;;;;26.49;56.82;99095.19;4992147;28;20113;-73
2023/09/18 10:42:46;;;;;;;7.65;4.80;;;;;;;26.49;56.67;99097.84;4992243;28;20030;-73
2023/09/18 10:45:12;;;;;;;7.72;5.30;;;;;;;26.50;56.91;99098.72;4992512;28;20023;-73
2023/09/18 10:47:47;;;;;;;7.47;5.20;;;;;;;26.50;56.43;99099.56;4983577;28;20039;-73
2023/09/18 10:50:23;;;;;;;7.90;4.80;;;;;;;26.50;56.81;99104.94;4973006;28;20035;-73
2023/09/18 10:52:48;;;;;;;8.10;4.97;;;;;;;26.49;56.75;99097.84;4972912;28;20023;-73
2023/09/18 10:55:14;;;;;;;8.20;4.65;;;;;;;26.50;56.85;99104.94;4972556;28;20500;-73
2023/09/18 10:57:57;;;;;;;7.93;4.60;;;;;;;26.51;57.09;99101.25;4982328;28;20037;-73
2023/09/18 11:00:27;;;;;;;6.40;4.60;;;;;;;26.51;56.63;99093.25;4995802;28;20093;-73
2023/09/18 11:02:53;;;;;;;6.72;4.70;;;;;;;26.52;56.87;99096.75;4995622;28;20040;-74
2023/09/18 11:05:32;;;;;;;6.78;4.55;;;;;;;26.52;56.89;99097.59;4995670;28;20121;-73
2023/09/18 11:08:26;;;;;;;7.15;4.85;;;;;;;26.52;56.84;99102.94;4983716;28;20110;-73
2023/09/18 11:11:04;;;;;;;8.43;4.57;;;;;;;26.54;56.96;99095.63;4975757;28;20045;-73
2023/09/18 11:13:37;;;;;;;7.45;4.60;;;;;;;26.54;56.70;99095.63;4975957;28;20054;-73
2023/09/18 11:16:16;;;;;;;10.10;4.93;;;;;;;26.57;57.07;99093.66;4976122;28;20034;-73
2023/09/18 11:18:42;;;;;;;7.38;4.57;;;;;;;26.59;56.47;99091.69;4992725;28;20113;-72
2023/09/18 11:21:15;;;;;;;9.30;4.40;;;;;;;26.60;56.68;99098.72;4995067;28;20050;-72
2023/09/18 11:23:42;;;;;;;9.02;5.30;;;;;;;26.61;56.89;99105.75;4991875;28;20038;-72
2023/09/18 11:26:09;;;;;;;7.30;4.53;;;;;;;26.64;56.91;99102.81;4995384;28;20023;-73
2023/09/18 11:28:37;;;;;;;6.88;4.43;;;;;;;26.64;56.81;99102.81;4982260;28;20525;-73
2023/09/18 11:31:03;;;;;;;8.48;4.95;;;;;;;26.64;56.78;99098.28;4993535;28;20058;-73
2023/09/18 11:33:32;;;;;;;6.70;4.38;;;;;;;26.65;56.79;99091.13;4995181;28;20729;-72